sensor_id;sensor_type;location;lat;lon;timestamp;P1;durP1;ratioP1;P2;durP2;ratioP2
68353;SDS011;55274;43.060;25.618;2023-05-27T00:00:05;10.38;;;5.38;;
68353;SDS011;55274;43.060;25.618;2023-05-27T00:02:33;7.78;;;3.85;;
68353;SDS011;55274;43.060;25.618;2023-05-27T00:04:58;7.25;;;4.47;;
68353;SDS011;55274;43.060;25.618;2023-05-27T00:07:24;11.00;;;4.30;;
68353;SDS011;55274;43.060;25.618;2023-05-27T00:09:51;7.38;;;4.13;;
68353;SDS011;55274;43.060;25.618;2023-05-27T00:12:17;5.65;;;3.78;;
68353;SDS011;55274;43.060;25.618;2023-05-27T00:14:43;9.25;;;3.75;;
68353;SDS011;55274;43.060;25.618;2023-05-27T00:17:09;5.40;;;3.38;;
68353;SDS011;55274;43.060;25.618;2023-05-27T00:19:38;6.63;;;3.60;;
68353;SDS011;55274;43.060;25.618;2023-05-27T00:22:10;9.93;;;4.30;;
68353;SDS011;55274;43.060;25.618;2023-05-27T00:24:36;7.65;;;3.60;;
68353;SDS011;55274;43.060;25.618;2023-05-27T00:27:07;6.35;;;4.13;;
68353;SDS011;55274;43.060;25.618;2023-05-27T00:29:33;8.00;;;3.92;;
68353;SDS011;55274;43.060;25.618;2023-05-27T00:32:00;7.75;;;3.70;;
68353;SDS011;55274;43.060;25.618;2023-05-27T00:34:27;7.03;;;3.65;;
68353;SDS011;55274;43.060;25.618;2023-05-27T00:36:54;9.70;;;4.38;;
68353;SDS011;55274;43.060;25.618;2023-05-27T00:39:19;8.20;;;4.47;;
68353;SDS011;55274;43.060;25.618;2023-05-27T00:41:47;8.75;;;4.05;;
68353;SDS011;55274;43.060;25.618;2023-05-27T00:44:14;10.43;;;4.30;;
68353;SDS011;55274;43.060;25.618;2023-05-27T00:46:40;8.77;;;4.05;;
68353;SDS011;55274;43.060;25.618;2023-05-27T00:49:06;9.48;;;4.45;;
68353;SDS011;55274;43.060;25.618;2023-05-27T00:51:32;10.27;;;4.45;;
68353;SDS011;55274;43.060;25.618;2023-05-27T00:53:58;10.80;;;4.53;;
68353;SDS011;55274;43.060;25.618;2023-05-27T00:56:24;10.10;;;4.30;;
68353;SDS011;55274;43.060;25.618;2023-05-27T00:58:50;12.55;;;4.82;;
68353;SDS011;55274;43.060;25.618;2023-05-27T01:01:17;14.45;;;4.97;;
68353;SDS011;55274;43.060;25.618;2023-05-27T01:03:44;14.40;;;5.30;;
68353;SDS011;55274;43.060;25.618;2023-05-27T01:09:08;12.95;;;4.78;;
68353;SDS011;55274;43.060;25.618;2023-05-27T01:12:01;9.25;;;4.32;;
68353;SDS011;55274;43.060;25.618;2023-05-27T01:14:33;7.93;;;4.70;;
68353;SDS011;55274;43.060;25.618;2023-05-27T01:17:02;8.95;;;5.40;;
68353;SDS011;55274;43.060;25.618;2023-05-27T01:19:42;8.52;;;4.55;;
68353;SDS011;55274;43.060;25.618;2023-05-27T01:22:13;9.95;;;5.05;;
68353;SDS011;55274;43.060;25.618;2023-05-27T01:24:40;10.45;;;5.32;;
68353;SDS011;55274;43.060;25.618;2023-05-27T01:27:07;9.30;;;4.07;;
68353;SDS011;55274;43.060;25.618;2023-05-27T01:29:33;10.35;;;4.63;;
68353;SDS011;55274;43.060;25.618;2023-05-27T01:37:28;14.35;;;4.90;;
68353;SDS011;55274;43.060;25.618;2023-05-27T01:39:57;11.82;;;4.45;;
68353;SDS011;55274;43.060;25.618;2023-05-27T01:42:23;8.60;;;4.32;;
68353;SDS011;55274;43.060;25.618;2023-05-27T01:44:50;12.65;;;4.80;;
68353;SDS011;55274;43.060;25.618;2023-05-27T01:47:16;14.80;;;4.90;;
68353;SDS011;55274;43.060;25.618;2023-05-27T01:49:42;14.98;;;4.85;;
68353;SDS011;55274;43.060;25.618;2023-05-27T01:52:08;7.82;;;4.40;;
68353;SDS011;55274;43.060;25.618;2023-05-27T01:54:34;8.90;;;4.32;;
68353;SDS011;55274;43.060;25.618;2023-05-27T01:57:00;13.13;;;5.40;;
68353;SDS011;55274;43.060;25.618;2023-05-27T01:59:26;9.00;;;4.22;;
68353;SDS011;55274;43.060;25.618;2023-05-27T02:01:51;8.60;;;4.75;;
68353;SDS011;55274;43.060;25.618;2023-05-27T02:04:17;10.00;;;4.82;;
68353;SDS011;55274;43.060;25.618;2023-05-27T02:06:43;12.80;;;5.93;;
68353;SDS011;55274;43.060;25.618;2023-05-27T02:09:09;7.65;;;4.60;;
68353;SDS011;55274;43.060;25.618;2023-05-27T02:11:37;13.02;;;4.70;;
68353;SDS011;55274;43.060;25.618;2023-05-27T02:14:03;10.05;;;4.53;;
68353;SDS011;55274;43.060;25.618;2023-05-27T02:16:30;15.52;;;5.18;;
68353;SDS011;55274;43.060;25.618;2023-05-27T02:18:59;12.32;;;4.63;;
68353;SDS011;55274;43.060;25.618;2023-05-27T02:21:26;9.05;;;4.43;;
68353;SDS011;55274;43.060;25.618;2023-05-27T02:23:52;28.13;;;5.13;;
68353;SDS011;55274;43.060;25.618;2023-05-27T02:26:17;25.60;;;5.45;;
68353;SDS011;55274;43.060;25.618;2023-05-27T02:28:43;10.18;;;4.85;;
68353;SDS011;55274;43.060;25.618;2023-05-27T02:31:09;9.02;;;4.38;;
68353;SDS011;55274;43.060;25.618;2023-05-27T02:33:34;8.95;;;4.93;;
68353;SDS011;55274;43.060;25.618;2023-05-27T02:36:00;8.27;;;4.28;;
68353;SDS011;55274;43.060;25.618;2023-05-27T02:38:26;12.27;;;4.35;;
68353;SDS011;55274;43.060;25.618;2023-05-27T02:40:52;8.70;;;4.10;;
68353;SDS011;55274;43.060;25.618;2023-05-27T02:43:17;10.82;;;5.13;;
68353;SDS011;55274;43.060;25.618;2023-05-27T02:45:43;14.18;;;6.30;;
68353;SDS011;55274;43.060;25.618;2023-05-27T02:48:09;9.93;;;4.35;;
68353;SDS011;55274;43.060;25.618;2023-05-27T02:50:35;11.63;;;4.85;;
68353;SDS011;55274;43.060;25.618;2023-05-27T02:53:00;15.10;;;5.03;;
68353;SDS011;55274;43.060;25.618;2023-05-27T02:55:26;8.57;;;4.82;;
68353;SDS011;55274;43.060;25.618;2023-05-27T02:57:52;9.93;;;4.72;;
68353;SDS011;55274;43.060;25.618;2023-05-27T03:00:17;11.10;;;6.95;;
68353;SDS011;55274;43.060;25.618;2023-05-27T03:02:43;13.25;;;6.03;;
68353;SDS011;55274;43.060;25.618;2023-05-27T03:05:09;10.65;;;5.55;;
68353;SDS011;55274;43.060;25.618;2023-05-27T03:07:35;10.00;;;4.70;;
68353;SDS011;55274;43.060;25.618;2023-05-27T03:10:01;10.40;;;4.72;;
68353;SDS011;55274;43.060;25.618;2023-05-27T03:12:27;7.55;;;4.50;;
68353;SDS011;55274;43.060;25.618;2023-05-27T03:14:53;9.43;;;4.70;;
68353;SDS011;55274;43.060;25.618;2023-05-27T03:17:19;8.95;;;5.15;;
68353;SDS011;55274;43.060;25.618;2023-05-27T03:19:45;11.88;;;5.30;;
68353;SDS011;55274;43.060;25.618;2023-05-27T03:22:11;12.32;;;4.75;;
68353;SDS011;55274;43.060;25.618;2023-05-27T03:24:37;12.68;;;5.45;;
68353;SDS011;55274;43.060;25.618;2023-05-27T03:27:03;7.43;;;4.22;;
68353;SDS011;55274;43.060;25.618;2023-05-27T03:29:30;8.75;;;4.07;;
68353;SDS011;55274;43.060;25.618;2023-05-27T03:31:56;8.00;;;4.03;;
68353;SDS011;55274;43.060;25.618;2023-05-27T03:34:22;19.73;;;4.60;;
68353;SDS011;55274;43.060;25.618;2023-05-27T03:36:48;9.35;;;4.00;;
68353;SDS011;55274;43.060;25.618;2023-05-27T03:39:15;7.88;;;4.10;;
68353;SDS011;55274;43.060;25.618;2023-05-27T03:41:42;10.52;;;4.28;;
68353;SDS011;55274;43.060;25.618;2023-05-27T03:44:08;16.13;;;5.15;;
68353;SDS011;55274;43.060;25.618;2023-05-27T03:46:34;14.10;;;4.63;;
68353;SDS011;55274;43.060;25.618;2023-05-27T03:49:01;12.45;;;4.60;;
68353;SDS011;55274;43.060;25.618;2023-05-27T03:51:27;7.68;;;4.22;;
68353;SDS011;55274;43.060;25.618;2023-05-27T03:53:53;12.88;;;4.65;;
68353;SDS011;55274;43.060;25.618;2023-05-27T03:56:19;11.75;;;3.97;;
68353;SDS011;55274;43.060;25.618;2023-05-27T03:58:44;16.75;;;3.97;;
68353;SDS011;55274;43.060;25.618;2023-05-27T04:01:10;8.20;;;4.03;;
68353;SDS011;55274;43.060;25.618;2023-05-27T04:03:37;13.25;;;5.65;;
68353;SDS011;55274;43.060;25.618;2023-05-27T04:06:05;10.43;;;4.75;;
68353;SDS011;55274;43.060;25.618;2023-05-27T04:08:31;8.63;;;4.03;;
68353;SDS011;55274;43.060;25.618;2023-05-27T04:10:57;5.90;;;3.83;;
68353;SDS011;55274;43.060;25.618;2023-05-27T04:13:23;7.97;;;3.92;;
68353;SDS011;55274;43.060;25.618;2023-05-27T04:15:49;13.65;;;4.45;;
68353;SDS011;55274;43.060;25.618;2023-05-27T04:18:15;8.25;;;4.65;;
68353;SDS011;55274;43.060;25.618;2023-05-27T04:20:41;7.90;;;4.13;;
68353;SDS011;55274;43.060;25.618;2023-05-27T04:23:08;9.18;;;5.72;;
68353;SDS011;55274;43.060;25.618;2023-05-27T04:25:35;11.52;;;4.35;;
68353;SDS011;55274;43.060;25.618;2023-05-27T04:28:02;13.52;;;4.97;;
68353;SDS011;55274;43.060;25.618;2023-05-27T04:30:31;11.35;;;4.93;;
68353;SDS011;55274;43.060;25.618;2023-05-27T04:32:58;8.32;;;4.30;;
68353;SDS011;55274;43.060;25.618;2023-05-27T04:35:25;8.00;;;4.50;;
68353;SDS011;55274;43.060;25.618;2023-05-27T04:37:51;11.18;;;4.97;;
68353;SDS011;55274;43.060;25.618;2023-05-27T04:40:17;17.30;;;7.25;;
68353;SDS011;55274;43.060;25.618;2023-05-27T04:42:43;21.52;;;5.80;;
68353;SDS011;55274;43.060;25.618;2023-05-27T04:45:09;21.77;;;6.03;;
68353;SDS011;55274;43.060;25.618;2023-05-27T04:47:38;12.15;;;4.85;;
68353;SDS011;55274;43.060;25.618;2023-05-27T04:50:06;9.60;;;4.85;;
68353;SDS011;55274;43.060;25.618;2023-05-27T04:52:33;17.98;;;4.63;;
68353;SDS011;55274;43.060;25.618;2023-05-27T04:55:07;14.80;;;4.72;;
68353;SDS011;55274;43.060;25.618;2023-05-27T04:57:34;15.52;;;5.85;;
68353;SDS011;55274;43.060;25.618;2023-05-27T05:00:02;14.68;;;4.90;;
68353;SDS011;55274;43.060;25.618;2023-05-27T05:02:33;14.98;;;5.20;;
68353;SDS011;55274;43.060;25.618;2023-05-27T05:05:03;12.85;;;5.47;;
68353;SDS011;55274;43.060;25.618;2023-05-27T05:07:39;14.95;;;6.22;;
68353;SDS011;55274;43.060;25.618;2023-05-27T05:12:33;29.23;;;11.18;;
68353;SDS011;55274;43.060;25.618;2023-05-27T05:15:00;42.47;;;15.25;;
68353;SDS011;55274;43.060;25.618;2023-05-27T05:17:26;20.67;;;7.93;;
68353;SDS011;55274;43.060;25.618;2023-05-27T05:19:52;14.52;;;8.13;;
68353;SDS011;55274;43.060;25.618;2023-05-27T05:22:18;15.57;;;6.22;;
68353;SDS011;55274;43.060;25.618;2023-05-27T05:24:48;28.30;;;11.07;;
68353;SDS011;55274;43.060;25.618;2023-05-27T05:27:15;21.02;;;9.95;;
68353;SDS011;55274;43.060;25.618;2023-05-27T05:29:41;15.77;;;8.75;;
68353;SDS011;55274;43.060;25.618;2023-05-27T05:32:07;17.77;;;7.80;;
68353;SDS011;55274;43.060;25.618;2023-05-27T05:34:36;14.50;;;7.18;;
68353;SDS011;55274;43.060;25.618;2023-05-27T05:37:02;16.17;;;7.43;;
68353;SDS011;55274;43.060;25.618;2023-05-27T05:39:28;14.27;;;7.25;;
68353;SDS011;55274;43.060;25.618;2023-05-27T05:41:54;11.63;;;6.22;;
68353;SDS011;55274;43.060;25.618;2023-05-27T05:44:20;15.10;;;6.10;;
68353;SDS011;55274;43.060;25.618;2023-05-27T05:46:47;9.63;;;5.90;;
68353;SDS011;55274;43.060;25.618;2023-05-27T05:49:13;11.82;;;6.20;;
68353;SDS011;55274;43.060;25.618;2023-05-27T05:51:39;12.90;;;6.40;;
68353;SDS011;55274;43.060;25.618;2023-05-27T05:54:05;9.23;;;4.80;;
68353;SDS011;55274;43.060;25.618;2023-05-27T05:56:31;7.85;;;4.75;;
68353;SDS011;55274;43.060;25.618;2023-05-27T05:58:58;8.32;;;4.90;;
68353;SDS011;55274;43.060;25.618;2023-05-27T06:01:23;9.48;;;4.90;;
68353;SDS011;55274;43.060;25.618;2023-05-27T06:03:52;8.18;;;4.20;;
68353;SDS011;55274;43.060;25.618;2023-05-27T06:06:18;7.25;;;4.75;;
68353;SDS011;55274;43.060;25.618;2023-05-27T06:08:44;11.52;;;6.28;;
68353;SDS011;55274;43.060;25.618;2023-05-27T06:11:10;9.57;;;5.53;;
68353;SDS011;55274;43.060;25.618;2023-05-27T06:13:37;13.02;;;6.70;;
68353;SDS011;55274;43.060;25.618;2023-05-27T06:16:02;10.85;;;6.65;;
68353;SDS011;55274;43.060;25.618;2023-05-27T06:18:28;13.85;;;7.25;;
68353;SDS011;55274;43.060;25.618;2023-05-27T06:20:54;13.00;;;7.07;;
68353;SDS011;55274;43.060;25.618;2023-05-27T06:23:20;14.63;;;7.40;;
68353;SDS011;55274;43.060;25.618;2023-05-27T06:25:46;12.88;;;7.25;;
68353;SDS011;55274;43.060;25.618;2023-05-27T06:28:12;15.70;;;7.88;;
68353;SDS011;55274;43.060;25.618;2023-05-27T06:30:37;12.30;;;6.95;;
68353;SDS011;55274;43.060;25.618;2023-05-27T06:33:04;13.45;;;7.15;;
68353;SDS011;55274;43.060;25.618;2023-05-27T06:35:30;11.90;;;6.72;;
68353;SDS011;55274;43.060;25.618;2023-05-27T06:37:57;10.98;;;7.43;;
68353;SDS011;55274;43.060;25.618;2023-05-27T06:40:24;12.48;;;6.43;;
68353;SDS011;55274;43.060;25.618;2023-05-27T06:42:50;13.27;;;6.75;;
68353;SDS011;55274;43.060;25.618;2023-05-27T06:45:15;19.10;;;7.07;;
68353;SDS011;55274;43.060;25.618;2023-05-27T06:47:41;12.40;;;6.72;;
68353;SDS011;55274;43.060;25.618;2023-05-27T06:50:07;11.48;;;6.80;;
68353;SDS011;55274;43.060;25.618;2023-05-27T06:52:33;11.57;;;6.60;;
68353;SDS011;55274;43.060;25.618;2023-05-27T06:54:59;14.10;;;6.00;;
68353;SDS011;55274;43.060;25.618;2023-05-27T06:57:25;10.88;;;6.53;;
68353;SDS011;55274;43.060;25.618;2023-05-27T06:59:51;11.75;;;6.30;;
68353;SDS011;55274;43.060;25.618;2023-05-27T07:02:17;13.65;;;5.93;;
68353;SDS011;55274;43.060;25.618;2023-05-27T07:04:43;9.88;;;6.45;;
68353;SDS011;55274;43.060;25.618;2023-05-27T07:07:08;13.98;;;6.93;;
68353;SDS011;55274;43.060;25.618;2023-05-27T07:09:34;10.95;;;6.05;;
68353;SDS011;55274;43.060;25.618;2023-05-27T07:12:03;5.00;;;3.40;;
68353;SDS011;55274;43.060;25.618;2023-05-27T07:14:31;6.28;;;4.05;;
68353;SDS011;55274;43.060;25.618;2023-05-27T07:16:57;6.97;;;3.10;;
68353;SDS011;55274;43.060;25.618;2023-05-27T07:19:23;5.05;;;3.17;;
68353;SDS011;55274;43.060;25.618;2023-05-27T07:21:48;9.32;;;5.30;;
68353;SDS011;55274;43.060;25.618;2023-05-27T07:24:14;13.55;;;5.90;;
68353;SDS011;55274;43.060;25.618;2023-05-27T07:26:40;6.45;;;3.30;;
68353;SDS011;55274;43.060;25.618;2023-05-27T07:29:06;4.75;;;3.30;;
68353;SDS011;55274;43.060;25.618;2023-05-27T07:31:32;10.18;;;4.82;;
68353;SDS011;55274;43.060;25.618;2023-05-27T07:33:57;11.90;;;4.10;;
68353;SDS011;55274;43.060;25.618;2023-05-27T07:36:23;10.27;;;5.72;;
68353;SDS011;55274;43.060;25.618;2023-05-27T07:38:49;9.93;;;6.15;;
68353;SDS011;55274;43.060;25.618;2023-05-27T07:41:15;8.45;;;5.50;;
68353;SDS011;55274;43.060;25.618;2023-05-27T07:43:41;8.73;;;4.95;;
68353;SDS011;55274;43.060;25.618;2023-05-27T07:46:06;18.38;;;4.57;;
68353;SDS011;55274;43.060;25.618;2023-05-27T07:48:32;12.65;;;3.95;;
68353;SDS011;55274;43.060;25.618;2023-05-27T07:50:58;7.68;;;4.70;;
68353;SDS011;55274;43.060;25.618;2023-05-27T07:53:24;7.50;;;4.68;;
68353;SDS011;55274;43.060;25.618;2023-05-27T07:55:50;8.20;;;3.72;;
68353;SDS011;55274;43.060;25.618;2023-05-27T07:58:15;8.82;;;4.75;;
68353;SDS011;55274;43.060;25.618;2023-05-27T08:00:41;12.02;;;4.82;;
68353;SDS011;55274;43.060;25.618;2023-05-27T08:03:07;12.68;;;3.88;;
68353;SDS011;55274;43.060;25.618;2023-05-27T08:05:33;8.50;;;3.60;;
68353;SDS011;55274;43.060;25.618;2023-05-27T08:07:59;5.25;;;3.03;;
68353;SDS011;55274;43.060;25.618;2023-05-27T08:10:25;5.68;;;3.22;;
68353;SDS011;55274;43.060;25.618;2023-05-27T08:12:51;7.00;;;3.30;;
68353;SDS011;55274;43.060;25.618;2023-05-27T08:15:17;8.10;;;3.33;;
68353;SDS011;55274;43.060;25.618;2023-05-27T08:17:43;5.65;;;3.45;;
68353;SDS011;55274;43.060;25.618;2023-05-27T08:20:12;12.18;;;3.67;;
68353;SDS011;55274;43.060;25.618;2023-05-27T08:22:38;3.92;;;2.90;;
68353;SDS011;55274;43.060;25.618;2023-05-27T08:25:04;6.03;;;3.17;;
68353;SDS011;55274;43.060;25.618;2023-05-27T08:27:43;8.63;;;3.17;;
68353;SDS011;55274;43.060;25.618;2023-05-27T08:30:17;4.85;;;3.58;;
68353;SDS011;55274;43.060;25.618;2023-05-27T08:32:43;4.50;;;3.13;;
68353;SDS011;55274;43.060;25.618;2023-05-27T08:35:09;8.75;;;3.88;;
68353;SDS011;55274;43.060;25.618;2023-05-27T08:37:36;19.02;;;4.30;;
68353;SDS011;55274;43.060;25.618;2023-05-27T08:40:03;6.95;;;3.17;;
68353;SDS011;55274;43.060;25.618;2023-05-27T08:42:32;24.40;;;4.30;;
68353;SDS011;55274;43.060;25.618;2023-05-27T08:44:58;5.13;;;3.40;;
68353;SDS011;55274;43.060;25.618;2023-05-27T08:47:28;8.90;;;4.15;;
68353;SDS011;55274;43.060;25.618;2023-05-27T08:49:57;10.65;;;4.47;;
68353;SDS011;55274;43.060;25.618;2023-05-27T08:52:29;14.32;;;4.82;;
68353;SDS011;55274;43.060;25.618;2023-05-27T08:54:58;7.15;;;3.28;;
68353;SDS011;55274;43.060;25.618;2023-05-27T08:57:27;7.65;;;3.50;;
68353;SDS011;55274;43.060;25.618;2023-05-27T08:59:55;5.20;;;3.08;;
68353;SDS011;55274;43.060;25.618;2023-05-27T09:02:21;3.88;;;2.97;;
68353;SDS011;55274;43.060;25.618;2023-05-27T09:04:48;6.65;;;3.30;;
68353;SDS011;55274;43.060;25.618;2023-05-27T09:07:15;7.32;;;3.30;;
68353;SDS011;55274;43.060;25.618;2023-05-27T09:09:41;4.65;;;2.95;;
68353;SDS011;55274;43.060;25.618;2023-05-27T09:12:08;11.60;;;3.65;;
68353;SDS011;55274;43.060;25.618;2023-05-27T09:14:34;6.57;;;3.38;;
68353;SDS011;55274;43.060;25.618;2023-05-27T09:17:06;4.88;;;3.45;;
68353;SDS011;55274;43.060;25.618;2023-05-27T09:19:33;6.90;;;3.47;;
68353;SDS011;55274;43.060;25.618;2023-05-27T09:22:00;14.45;;;4.03;;
68353;SDS011;55274;43.060;25.618;2023-05-27T09:24:26;8.23;;;3.78;;
68353;SDS011;55274;43.060;25.618;2023-05-27T09:26:52;8.73;;;3.83;;
68353;SDS011;55274;43.060;25.618;2023-05-27T09:29:19;7.63;;;4.30;;
68353;SDS011;55274;43.060;25.618;2023-05-27T09:31:55;6.95;;;4.30;;
68353;SDS011;55274;43.060;25.618;2023-05-27T09:34:21;6.22;;;4.10;;
68353;SDS011;55274;43.060;25.618;2023-05-27T09:36:48;10.20;;;4.30;;
68353;SDS011;55274;43.060;25.618;2023-05-27T09:39:16;9.25;;;4.72;;
68353;SDS011;55274;43.060;25.618;2023-05-27T09:41:43;5.43;;;4.32;;
68353;SDS011;55274;43.060;25.618;2023-05-27T09:44:14;7.25;;;4.57;;
68353;SDS011;55274;43.060;25.618;2023-05-27T09:46:41;6.13;;;4.32;;
68353;SDS011;55274;43.060;25.618;2023-05-27T09:49:09;8.15;;;4.63;;
68353;SDS011;55274;43.060;25.618;2023-05-27T09:51:35;10.25;;;4.90;;
68353;SDS011;55274;43.060;25.618;2023-05-27T09:54:04;7.57;;;5.20;;
68353;SDS011;55274;43.060;25.618;2023-05-27T09:56:31;8.02;;;5.35;;
68353;SDS011;55274;43.060;25.618;2023-05-27T09:58:58;10.88;;;5.43;;
68353;SDS011;55274;43.060;25.618;2023-05-27T10:01:26;8.60;;;5.10;;
68353;SDS011;55274;43.060;25.618;2023-05-27T10:03:54;9.63;;;5.32;;
68353;SDS011;55274;43.060;25.618;2023-05-27T10:06:23;8.85;;;4.95;;
68353;SDS011;55274;43.060;25.618;2023-05-27T10:08:51;10.07;;;5.40;;
68353;SDS011;55274;43.060;25.618;2023-05-27T10:11:23;12.85;;;5.88;;
68353;SDS011;55274;43.060;25.618;2023-05-27T10:13:51;13.43;;;6.82;;
68353;SDS011;55274;43.060;25.618;2023-05-27T10:16:21;11.65;;;6.70;;
68353;SDS011;55274;43.060;25.618;2023-05-27T10:21:18;10.80;;;7.18;;
68353;SDS011;55274;43.060;25.618;2023-05-27T10:23:58;13.18;;;6.95;;
68353;SDS011;55274;43.060;25.618;2023-05-27T10:26:33;10.65;;;7.63;;
68353;SDS011;55274;43.060;25.618;2023-05-27T10:31:33;8.90;;;7.10;;
68353;SDS011;55274;43.060;25.618;2023-05-27T10:33:58;10.85;;;6.70;;
68353;SDS011;55274;43.060;25.618;2023-05-27T10:36:25;10.35;;;6.55;;
68353;SDS011;55274;43.060;25.618;2023-05-27T10:44:13;6.63;;;4.65;;
68353;SDS011;55274;43.060;25.618;2023-05-27T10:46:58;9.98;;;6.55;;
68353;SDS011;55274;43.060;25.618;2023-05-27T10:49:25;12.50;;;7.32;;
68353;SDS011;55274;43.060;25.618;2023-05-27T10:52:01;11.27;;;7.80;;
68353;SDS011;55274;43.060;25.618;2023-05-27T10:54:45;10.32;;;6.35;;
68353;SDS011;55274;43.060;25.618;2023-05-27T10:57:12;9.43;;;8.00;;
68353;SDS011;55274;43.060;25.618;2023-05-27T10:59:47;15.13;;;9.30;;
68353;SDS011;55274;43.060;25.618;2023-05-27T11:02:13;6.68;;;4.55;;
68353;SDS011;55274;43.060;25.618;2023-05-27T11:04:40;5.97;;;4.38;;
68353;SDS011;55274;43.060;25.618;2023-05-27T11:07:06;5.45;;;4.10;;
68353;SDS011;55274;43.060;25.618;2023-05-27T11:09:48;6.03;;;4.32;;
68353;SDS011;55274;43.060;25.618;2023-05-27T11:12:15;6.80;;;4.28;;
68353;SDS011;55274;43.060;25.618;2023-05-27T11:14:45;7.50;;;4.43;;
68353;SDS011;55274;43.060;25.618;2023-05-27T11:17:13;6.70;;;4.22;;
68353;SDS011;55274;43.060;25.618;2023-05-27T11:19:39;8.40;;;3.97;;
68353;SDS011;55274;43.060;25.618;2023-05-27T11:22:07;9.30;;;4.25;;
68353;SDS011;55274;43.060;25.618;2023-05-27T11:24:34;5.90;;;4.07;;
68353;SDS011;55274;43.060;25.618;2023-05-27T11:27:11;6.35;;;4.15;;
68353;SDS011;55274;43.060;25.618;2023-05-27T11:29:39;5.55;;;3.58;;
68353;SDS011;55274;43.060;25.618;2023-05-27T11:32:05;8.15;;;3.50;;
68353;SDS011;55274;43.060;25.618;2023-05-27T11:34:35;5.32;;;4.13;;
68353;SDS011;55274;43.060;25.618;2023-05-27T11:37:02;5.43;;;3.65;;
68353;SDS011;55274;43.060;25.618;2023-05-27T11:39:31;6.22;;;4.15;;
68353;SDS011;55274;43.060;25.618;2023-05-27T11:41:57;5.35;;;4.10;;
68353;SDS011;55274;43.060;25.618;2023-05-27T11:44:24;5.18;;;4.03;;
68353;SDS011;55274;43.060;25.618;2023-05-27T11:46:51;4.13;;;3.17;;
68353;SDS011;55274;43.060;25.618;2023-05-27T11:49:22;6.10;;;3.55;;
68353;SDS011;55274;43.060;25.618;2023-05-27T11:51:54;6.35;;;3.60;;
68353;SDS011;55274;43.060;25.618;2023-05-27T11:56:50;4.82;;;3.78;;
68353;SDS011;55274;43.060;25.618;2023-05-27T11:59:16;7.00;;;3.80;;
68353;SDS011;55274;43.060;25.618;2023-05-27T12:01:42;8.35;;;5.18;;
68353;SDS011;55274;43.060;25.618;2023-05-27T12:04:09;6.13;;;3.80;;
68353;SDS011;55274;43.060;25.618;2023-05-27T12:06:35;5.43;;;4.50;;
68353;SDS011;55274;43.060;25.618;2023-05-27T12:09:03;5.45;;;3.80;;
68353;SDS011;55274;43.060;25.618;2023-05-27T12:11:33;5.68;;;3.80;;
68353;SDS011;55274;43.060;25.618;2023-05-27T12:14:00;8.73;;;3.13;;
68353;SDS011;55274;43.060;25.618;2023-05-27T12:16:26;6.30;;;3.90;;
68353;SDS011;55274;43.060;25.618;2023-05-27T12:18:52;5.82;;;3.70;;
68353;SDS011;55274;43.060;25.618;2023-05-27T12:21:18;5.20;;;3.67;;
68353;SDS011;55274;43.060;25.618;2023-05-27T12:23:47;5.88;;;3.60;;
68353;SDS011;55274;43.060;25.618;2023-05-27T12:26:13;11.02;;;4.13;;
68353;SDS011;55274;43.060;25.618;2023-05-27T12:28:40;6.97;;;3.72;;
68353;SDS011;55274;43.060;25.618;2023-05-27T12:31:07;6.80;;;4.55;;
68353;SDS011;55274;43.060;25.618;2023-05-27T12:33:33;6.15;;;4.20;;
68353;SDS011;55274;43.060;25.618;2023-05-27T12:35:59;8.57;;;4.22;;
68353;SDS011;55274;43.060;25.618;2023-05-27T12:38:26;5.10;;;3.33;;
68353;SDS011;55274;43.060;25.618;2023-05-27T12:40:52;5.40;;;3.80;;
68353;SDS011;55274;43.060;25.618;2023-05-27T12:43:20;6.93;;;3.65;;
68353;SDS011;55274;43.060;25.618;2023-05-27T12:45:46;8.00;;;4.72;;
68353;SDS011;55274;43.060;25.618;2023-05-27T12:48:13;7.50;;;3.97;;
68353;SDS011;55274;43.060;25.618;2023-05-27T12:50:39;6.88;;;3.78;;
68353;SDS011;55274;43.060;25.618;2023-05-27T12:53:07;4.78;;;3.65;;
68353;SDS011;55274;43.060;25.618;2023-05-27T12:55:33;5.50;;;3.53;;
68353;SDS011;55274;43.060;25.618;2023-05-27T12:58:00;6.00;;;3.90;;
68353;SDS011;55274;43.060;25.618;2023-05-27T13:00:26;10.48;;;8.07;;
68353;SDS011;55274;43.060;25.618;2023-05-27T13:02:53;6.93;;;3.90;;
68353;SDS011;55274;43.060;25.618;2023-05-27T13:05:19;6.18;;;3.80;;
68353;SDS011;55274;43.060;25.618;2023-05-27T13:07:55;9.32;;;5.00;;
68353;SDS011;55274;43.060;25.618;2023-05-27T13:10:25;9.07;;;5.20;;
68353;SDS011;55274;43.060;25.618;2023-05-27T13:12:51;9.43;;;5.85;;
68353;SDS011;55274;43.060;25.618;2023-05-27T13:15:18;5.57;;;4.35;;
68353;SDS011;55274;43.060;25.618;2023-05-27T13:17:45;5.80;;;4.10;;
68353;SDS011;55274;43.060;25.618;2023-05-27T13:20:12;5.20;;;3.90;;
68353;SDS011;55274;43.060;25.618;2023-05-27T13:22:38;6.32;;;4.43;;
68353;SDS011;55274;43.060;25.618;2023-05-27T13:25:06;6.47;;;4.07;;
68353;SDS011;55274;43.060;25.618;2023-05-27T13:27:32;7.85;;;4.45;;
68353;SDS011;55274;43.060;25.618;2023-05-27T13:29:58;6.93;;;4.07;;
68353;SDS011;55274;43.060;25.618;2023-05-27T13:32:24;5.22;;;4.13;;
68353;SDS011;55274;43.060;25.618;2023-05-27T13:34:50;6.13;;;4.70;;
68353;SDS011;55274;43.060;25.618;2023-05-27T13:37:20;9.82;;;6.45;;
68353;SDS011;55274;43.060;25.618;2023-05-27T13:39:46;8.07;;;5.00;;
68353;SDS011;55274;43.060;25.618;2023-05-27T13:42:12;5.18;;;3.88;;
68353;SDS011;55274;43.060;25.618;2023-05-27T13:44:38;7.38;;;4.70;;
68353;SDS011;55274;43.060;25.618;2023-05-27T13:47:04;5.80;;;3.83;;
68353;SDS011;55274;43.060;25.618;2023-05-27T13:49:30;8.57;;;4.00;;
68353;SDS011;55274;43.060;25.618;2023-05-27T13:51:56;5.28;;;4.10;;
68353;SDS011;55274;43.060;25.618;2023-05-27T13:54:22;6.90;;;4.10;;
68353;SDS011;55274;43.060;25.618;2023-05-27T13:56:48;5.82;;;4.10;;
68353;SDS011;55274;43.060;25.618;2023-05-27T13:59:14;6.07;;;4.40;;
68353;SDS011;55274;43.060;25.618;2023-05-27T14:01:40;5.18;;;3.67;;
68353;SDS011;55274;43.060;25.618;2023-05-27T14:04:06;6.15;;;4.15;;
68353;SDS011;55274;43.060;25.618;2023-05-27T14:06:32;6.20;;;4.30;;
68353;SDS011;55274;43.060;25.618;2023-05-27T14:08:58;5.28;;;4.07;;
68353;SDS011;55274;43.060;25.618;2023-05-27T14:11:24;4.95;;;3.75;;
68353;SDS011;55274;43.060;25.618;2023-05-27T14:13:50;5.32;;;4.00;;
68353;SDS011;55274;43.060;25.618;2023-05-27T14:16:20;8.80;;;4.18;;
68353;SDS011;55274;43.060;25.618;2023-05-27T14:18:46;5.60;;;4.15;;
68353;SDS011;55274;43.060;25.618;2023-05-27T14:21:12;6.05;;;4.30;;
68353;SDS011;55274;43.060;25.618;2023-05-27T14:23:39;7.63;;;4.00;;
68353;SDS011;55274;43.060;25.618;2023-05-27T14:26:05;6.88;;;3.97;;
68353;SDS011;55274;43.060;25.618;2023-05-27T14:28:31;5.47;;;4.10;;
68353;SDS011;55274;43.060;25.618;2023-05-27T14:30:58;6.00;;;4.45;;
68353;SDS011;55274;43.060;25.618;2023-05-27T14:33:24;7.53;;;4.28;;
68353;SDS011;55274;43.060;25.618;2023-05-27T14:35:50;9.52;;;6.43;;
68353;SDS011;55274;43.060;25.618;2023-05-27T14:38:16;9.65;;;6.93;;
68353;SDS011;55274;43.060;25.618;2023-05-27T14:40:42;6.95;;;4.22;;
68353;SDS011;55274;43.060;25.618;2023-05-27T14:43:11;6.43;;;4.00;;
68353;SDS011;55274;43.060;25.618;2023-05-27T14:45:37;7.97;;;4.63;;
68353;SDS011;55274;43.060;25.618;2023-05-27T14:48:04;17.58;;;5.30;;
68353;SDS011;55274;43.060;25.618;2023-05-27T14:50:30;6.82;;;3.95;;